Time,TemperatureF,DewpointF,PressureIn,WindDirection,WindDirectionDegrees,WindSpeedMPH,WindSpeedGustMPH,Humidity,HourlyPrecipIn,Conditions,Clouds,dailyrainin,SolarRadiationWatts/m^2,SoftwareType,DateUTC
2013-04-25 00:02:00,40.1,36.5,29.99,SW,214,14.4,14.4,87,0.00,RA,,0.00,0.0,WeatherDisplay:10.37,2013-04-25 05:02:00,
2013-04-25 00:07:00,40.1,36.5,29.99,WSW,240,9.2,9.6,87,0.00,RA,,0.00,0.0,WeatherDisplay:10.37,2013-04-25 05:07:00,
2013-04-25 00:12:00,40.1,36.5,29.99,SSW,213,7.7,9.6,87,0.00,OVC,,0.00,0.0,WeatherDisplay:10.37,2013-04-25 05:12:00,
2013-04-25 00:17:00,40.1,36.5,29.99,South,173,4.9,6.0,87,0.00,OVC,,0.00,0.0,WeatherDisplay:10.37,2013-04-25 05:17:00,
2013-04-25 00:22:00,40.1,36.5,29.99,SW,221,5.3,7.2,87,0.00,OVC,,0.00,0.0,WeatherDisplay:10.37,2013-04-25 05:22:00,
2013-04-25 00:27:00,40.1,36.5,29.99,SW,225,8.0,8.4,87,0.00,OVC,,0.00,0.0,WeatherDisplay:10.37,2013-04-25 05:27:00,
2013-04-25 00:32:00,40.2,36.6,29.99,SW,222,7.3,9.6,87,0.00,OVC,,0.00,0.0,WeatherDisplay:10.37,2013-04-25 05:32:00,
2013-04-25 00:37:00,40.2,36.6,29.99,WSW,255,7.1,9.6,87,0.00,OVC,,0.00,0.0,WeatherDisplay:10.37,2013-04-25 05:37:00,
2013-04-25 00:42:00,40.2,36.6,29.99,WSW,249,7.2,11.5,87,0.00,OVC,,0.00,0.0,WeatherDisplay:10.37,2013-04-25 05:42:00,
2013-04-25 00:47:00,40.2,36.6,29.99,SW,216,6.2,7.2,87,0.00,OVC,,0.00,0.0,WeatherDisplay:10.37,2013-04-25 05:47:00,
2013-04-25 00:52:00,40.2,36.6,29.99,SW,231,6.6,7.2,87,0.00,OVC,,0.00,0.0,WeatherDisplay:10.37,2013-04-25 05:52:00,
2013-04-25 00:57:00,40.2,36.6,29.99,WSW,242,4.5,6.0,87,0.00,OVC,,0.00,0.0,WeatherDisplay:10.37,2013-04-25 05:57:00,
2013-04-25 01:02:00,40.2,36.6,29.99,WSW,257,6.0,7.2,87,0.00,BKN,,0.00,0.0,WeatherDisplay:10.37,2013-04-25 06:02:00,
2013-04-25 01:07:00,40.3,36.7,29.99,West,261,5.1,7.2,87,0.00,BKN,,0.00,0.0,WeatherDisplay:10.37,2013-04-25 06:07:00,
2013-04-25 01:12:00,40.3,36.4,29.99,WSW,254,4.6,7.2,86,0.00,BKN,,0.00,0.0,WeatherDisplay:10.37,2013-04-25 06:12:00,
2013-04-25 01:17:00,40.3,36.4,29.99,WSW,251,6.0,8.4,86,0.00,BKN,,0.00,0.0,WeatherDisplay:10.37,2013-04-25 06:17:00,
2013-04-25 01:22:00,40.3,36.1,29.99,West,271,6.1,8.4,85,0.00,BKN,,0.00,0.0,WeatherDisplay:10.37,2013-04-25 06:22:00,
2013-04-25 01:27:00,40.3,35.8,29.99,West,270,7.6,10.8,84,0.00,BKN,,0.00,0.0,WeatherDisplay:10.37,2013-04-25 06:27:00,
2013-04-25 01:32:00,40.3,35.8,29.99,WSW,246,4.0,6.0,84,0.00,BKN,,0.00,0.0,WeatherDisplay:10.37,2013-04-25 06:32:00,
2013-04-25 01:37:00,40.3,35.8,29.99,WSW,257,7.8,10.8,84,0.00,BKN,,0.00,0.0,WeatherDisplay:10.37,2013-04-25 06:37:00,
2013-04-25 01:42:00,40.3,35.5,29.99,West,261,7.3,11.5,83,0.00,BKN,,0.00,0.0,WeatherDisplay:10.37,2013-04-25 06:42:00,
2013-04-25 01:47:00,40.3,35.2,29.99,West,263,6.4,10.4,82,0.00,BKN,,0.00,0.0,WeatherDisplay:10.37,2013-04-25 06:47:00,
2013-04-25 01:52:00,40.3,35.2,29.99,West,262,9.0,10.8,82,0.00,BKN,,0.00,0.0,WeatherDisplay:10.37,2013-04-25 06:52:00,
2013-04-25 01:57:00,40.2,35.1,29.99,West,277,7.5,9.6,82,0.00,BKN,,0.00,0.0,WeatherDisplay:10.37,2013-04-25 06:57:00,
2013-04-25 02:02:00,40.2,34.8,29.99,WNW,286,5.8,7.2,81,0.00,SCT,,0.00,0.0,WeatherDisplay:10.37,2013-04-25 07:02:00,
2013-04-25 02:07:00,40.2,34.8,29.99,West,275,9.5,10.8,81,0.00,SCT,,0.00,0.0,WeatherDisplay:10.37,2013-04-25 07:07:00,
2013-04-25 02:12:00,40.1,34.7,29.99,West,277,5.6,8.4,81,0.00,SCT,,0.00,0.0,WeatherDisplay:10.37,2013-04-25 07:12:00,
2013-04-25 02:17:00,40.1,35.0,29.99,West,275,7.7,14.4,82,0.00,SCT,,0.00,0.0,WeatherDisplay:10.37,2013-04-25 07:17:00,
2013-04-25 02:22:00,39.9,34.5,29.99,West,270,6.5,11.5,81,0.00,-RA,,0.00,0.0,WeatherDisplay:10.37,2013-04-25 07:22:00,
2013-04-25 02:27:00,39.9,34.5,29.99,WNW,298,3.9,6.0,81,0.00,-RA,,0.00,0.0,WeatherDisplay:10.37,2013-04-25 07:27:00,
2013-04-25 02:32:00,39.8,34.4,30.00,WNW,292,4.5,8.4,81,0.00,-RA,,0.00,0.0,WeatherDisplay:10.37,2013-04-25 07:32:00,
2013-04-25 02:37:00,39.8,34.4,30.00,West,259,4.5,7.2,81,0.00,-RA,,0.00,0.0,WeatherDisplay:10.37,2013-04-25 07:37:00,
2013-04-25 02:42:00,39.8,34.8,30.00,West,265,6.4,8.4,82,0.00,BKN,,0.00,0.0,WeatherDisplay:10.37,2013-04-25 07:42:00,
2013-04-25 02:47:00,39.6,34.2,30.00,WNW,297,8.2,9.6,81,0.00,BKN,,0.00,0.0,WeatherDisplay:10.37,2013-04-25 07:47:00,
2013-04-25 02:52:00,39.5,34.2,30.00,West,273,7.6,9.2,81,0.00,BKN,,0.00,0.0,WeatherDisplay:10.37,2013-04-25 07:52:00,
2013-04-25 02:57:00,39.5,33.8,30.00,WNW,302,5.2,8.4,80,0.00,BKN,,0.00,0.0,WeatherDisplay:10.37,2013-04-25 07:57:00,
2013-04-25 03:02:00,39.5,33.8,30.00,WNW,290,4.1,5.8,80,0.00,OVC,,0.00,0.0,WeatherDisplay:10.37,2013-04-25 08:02:00,
2013-04-25 03:07:00,39.3,34.0,30.00,West,265,6.5,9.6,81,0.00,OVC,,0.00,0.0,WeatherDisplay:10.37,2013-04-25 08:07:00,
2013-04-25 03:12:00,39.3,34.0,30.00,West,281,6.3,10.8,81,0.00,OVC,,0.00,0.0,WeatherDisplay:10.37,2013-04-25 08:12:00,
2013-04-25 03:17:00,39.2,33.9,30.00,West,281,4.2,6.9,81,0.00,OVC,,0.00,0.0,WeatherDisplay:10.37,2013-04-25 08:17:00,
2013-04-25 03:22:00,39.2,33.9,30.00,WNW,292,3.5,6.0,81,0.00,OVC,,0.00,0.0,WeatherDisplay:10.37,2013-04-25 08:22:00,
2013-04-25 03:27:00,39.1,33.8,30.00,WNW,288,5.9,7.2,81,0.00,OVC,,0.00,0.0,WeatherDisplay:10.37,2013-04-25 08:27:00,
2013-04-25 03:32:00,39.1,34.1,30.00,WNW,301,1.7,6.9,82,0.00,OVC,,0.00,0.0,WeatherDisplay:10.37,2013-04-25 08:32:00,
2013-04-25 03:37:00,39.1,34.1,30.00,WNW,294,4.5,7.2,82,0.00,OVC,,0.00,0.0,WeatherDisplay:10.37,2013-04-25 08:37:00,
2013-04-25 03:42:00,39.1,34.1,30.00,West,268,4.0,7.2,82,0.00,OVC,,0.00,0.0,WeatherDisplay:10.37,2013-04-25 08:42:00,
2013-04-25 03:47:00,38.9,33.9,30.01,WNW,290,8.4,9.6,82,0.00,OVC,,0.00,0.0,WeatherDisplay:10.37,2013-04-25 08:47:00,
2013-04-25 03:52:00,38.9,33.9,30.01,West,274,4.5,7.2,82,0.00,OVC,,0.00,0.0,WeatherDisplay:10.37,2013-04-25 08:52:00,
2013-04-25 03:57:00,38.8,34.1,30.01,WSW,250,4.6,6.0,83,0.00,OVC,,0.00,0.0,WeatherDisplay:10.37,2013-04-25 08:57:00,
2013-04-25 04:02:00,38.8,34.4,30.02,WNW,284,3.2,4.8,84,0.00,BKN,,0.00,0.0,WeatherDisplay:10.37,2013-04-25 09:02:00,
2013-04-25 04:07:00,38.5,34.1,30.02,WNW,290,3.2,6.0,84,0.00,BKN,,0.00,0.0,WeatherDisplay:10.37,2013-04-25 09:07:00,
2013-04-25 04:12:00,38.3,33.9,30.02,WNW,282,4.9,6.0,84,0.00,BKN,,0.00,0.0,WeatherDisplay:10.37,2013-04-25 09:12:00,
2013-04-25 04:17:00,38.2,33.8,30.02,West,278,3.6,4.8,84,0.00,BKN,,0.00,0.0,WeatherDisplay:10.37,2013-04-25 09:17:00,
2013-04-25 04:22:00,38.2,33.8,30.02,West,281,3.4,6.0,84,0.00,OVC,,0.00,0.0,WeatherDisplay:10.37,2013-04-25 09:22:00,
2013-04-25 04:27:00,38.2,33.8,30.02,WNW,282,5.1,7.2,84,0.00,OVC,,0.00,0.0,WeatherDisplay:10.37,2013-04-25 09:27:00,
2013-04-25 04:32:00,38.2,33.8,30.02,West,264,2.7,8.4,84,0.00,OVC,,0.00,0.0,WeatherDisplay:10.37,2013-04-25 09:32:00,
2013-04-25 04:37:00,38.2,33.8,30.02,WNW,282,3.9,6.0,84,0.00,OVC,,0.00,0.0,WeatherDisplay:10.37,2013-04-25 09:37:00,
2013-04-25 04:42:00,38.2,33.8,30.02,WNW,284,4.7,6.0,84,0.00,OVC,,0.00,0.0,WeatherDisplay:10.37,2013-04-25 09:42:00,
2013-04-25 04:47:00,38.2,33.5,30.03,WSW,258,6.2,7.2,83,0.00,OVC,,0.00,0.0,WeatherDisplay:10.37,2013-04-25 09:47:00,
2013-04-25 04:52:00,38.2,33.5,30.03,WNW,286,5.5,11.5,83,0.00,OVC,,0.00,0.0,WeatherDisplay:10.37,2013-04-25 09:52:00,
2013-04-25 04:57:00,38.2,33.8,30.03,West,268,4.2,7.2,84,0.00,OVC,,0.00,0.0,WeatherDisplay:10.37,2013-04-25 09:57:00,
2013-04-25 05:02:00,38.3,33.9,30.04,West,263,0.8,3.6,84,0.00,OVC,,0.00,0.0,WeatherDisplay:10.37,2013-04-25 10:02:00,
2013-04-25 05:07:00,38.2,33.8,30.04,WNW,284,1.1,3.6,84,0.00,OVC,,0.00,0.0,WeatherDisplay:10.37,2013-04-25 10:07:00,
2013-04-25 05:12:00,38.2,33.8,30.04,West,273,2.5,4.8,84,0.00,OVC,,0.00,0.0,WeatherDisplay:10.37,2013-04-25 10:12:00,
2013-04-25 05:17:00,38.2,33.5,30.05,WSW,257,4.3,7.2,83,0.00,OVC,,0.00,0.0,WeatherDisplay:10.37,2013-04-25 10:17:00,
2013-04-25 05:22:00,38.2,33.5,30.05,West,263,2.5,5.8,83,0.00,OVC,,0.00,0.0,WeatherDisplay:10.37,2013-04-25 10:22:00,
2013-04-25 05:27:00,38.2,33.8,30.05,West,265,3.3,4.8,84,0.00,OVC,,0.00,0.0,WeatherDisplay:10.37,2013-04-25 10:27:00,
2013-04-25 05:32:00,38.0,33.6,30.05,WSW,257,0.3,2.4,84,0.00,OVC,,0.00,0.0,WeatherDisplay:10.37,2013-04-25 10:32:00,
2013-04-25 05:37:00,38.0,33.6,30.05,West,259,3.8,4.8,84,0.00,OVC,,0.00,0.0,WeatherDisplay:10.37,2013-04-25 10:37:00,
2013-04-25 05:42:00,38.0,33.6,30.05,West,260,3.2,5.8,84,0.00,OVC,,0.00,0.0,WeatherDisplay:10.37,2013-04-25 10:42:00,
2013-04-25 05:47:00,37.9,33.5,30.05,WSW,256,0.2,2.4,84,0.00,OVC,,0.00,0.0,WeatherDisplay:10.37,2013-04-25 10:47:00,
2013-04-25 05:52:00,37.9,33.5,30.05,West,270,0.5,3.5,84,0.00,OVC,,0.00,0.0,WeatherDisplay:10.37,2013-04-25 10:52:00,
2013-04-25 05:57:00,37.9,33.5,30.05,WSW,256,0.0,1.2,84,0.00,OVC,,0.00,0.0,WeatherDisplay:10.37,2013-04-25 10:57:00,
2013-04-25 06:02:00,37.9,33.5,30.05,West,259,5.7,7.2,84,0.00,BKN,,0.00,0.0,WeatherDisplay:10.37,2013-04-25 11:02:00,
2013-04-25 06:07:00,37.9,33.2,30.05,West,269,1.1,4.6,83,0.00,BKN,,0.00,0.0,WeatherDisplay:10.37,2013-04-25 11:07:00,
2013-04-25 06:12:00,37.9,33.2,30.05,NW,309,4.7,6.0,83,0.00,BKN,,0.00,0.0,WeatherDisplay:10.37,2013-04-25 11:12:00,
2013-04-25 06:17:00,37.9,33.2,30.07,West,275,3.3,3.6,83,0.00,BKN,,0.00,0.0,WeatherDisplay:10.37,2013-04-25 11:17:00,
2013-04-25 06:22:00,37.9,33.2,30.07,NW,312,1.4,6.0,83,0.00,OVC,,0.00,0.0,WeatherDisplay:10.37,2013-04-25 11:22:00,
2013-04-25 06:27:00,37.8,33.1,30.07,WSW,248,0.6,3.6,83,0.00,OVC,,0.00,7.0,WeatherDisplay:10.37,2013-04-25 11:27:00,
2013-04-25 06:32:00,37.8,33.1,30.07,West,273,2.8,3.6,83,0.00,OVC,,0.00,7.0,WeatherDisplay:10.37,2013-04-25 11:32:00,
2013-04-25 06:37:00,37.8,33.4,30.07,WSW,254,0.6,2.4,84,0.00,OVC,,0.00,9.0,WeatherDisplay:10.37,2013-04-25 11:37:00,
2013-04-25 06:42:00,37.8,33.4,30.07,WSW,257,2.0,3.6,84,0.00,OVC,,0.00,7.0,WeatherDisplay:10.37,2013-04-25 11:42:00,
2013-04-25 06:47:00,37.8,33.4,30.08,WSW,253,0.4,2.4,84,0.00,OVC,,0.00,7.0,WeatherDisplay:10.37,2013-04-25 11:47:00,
2013-04-25 06:52:00,37.5,33.4,30.08,West,268,5.4,8.4,85,0.00,OVC,,0.00,5.0,WeatherDisplay:10.37,2013-04-25 11:52:00,
2013-04-25 06:57:00,37.0,33.2,30.08,West,274,1.2,2.4,86,0.01,RA,,0.01,7.0,WeatherDisplay:10.37,2013-04-25 11:57:00,
2013-04-25 07:02:00,36.9,33.4,30.09,NW,311,2.6,4.8,87,0.01,RA,,0.01,14.0,WeatherDisplay:10.37,2013-04-25 12:02:00,
2013-04-25 07:07:00,36.8,33.6,30.09,West,263,0.0,0.0,88,0.01,OVC,,0.01,23.0,WeatherDisplay:10.37,2013-04-25 12:07:00,
2013-04-25 07:12:00,36.6,33.4,30.09,West,269,0.0,0.0,88,0.01,OVC,,0.01,39.0,WeatherDisplay:10.37,2013-04-25 12:12:00,
2013-04-25 07:17:00,36.6,33.7,30.10,West,269,0.1,1.2,89,0.01,OVC,,0.01,39.0,WeatherDisplay:10.37,2013-04-25 12:17:00,
2013-04-25 07:22:00,36.8,33.9,30.10,West,269,0.0,0.0,89,0.01,BKN,,0.01,81.0,WeatherDisplay:10.37,2013-04-25 12:22:00,
2013-04-25 07:27:00,36.9,34.2,30.10,West,269,1.1,2.4,90,0.01,BKN,,0.01,47.0,WeatherDisplay:10.37,2013-04-25 12:27:00,
2013-04-25 07:32:00,37.0,34.3,30.11,West,271,0.0,0.0,90,0.01,BKN,,0.01,42.0,WeatherDisplay:10.37,2013-04-25 12:32:00,
2013-04-25 07:37:00,37.2,34.3,30.11,WNW,288,3.6,4.8,89,0.01,BKN,,0.01,51.0,WeatherDisplay:10.37,2013-04-25 12:37:00,
2013-04-25 07:42:00,37.3,34.4,30.11,WNW,286,3.7,4.8,89,0.01,OVC,,0.01,51.0,WeatherDisplay:10.37,2013-04-25 12:42:00,
2013-04-25 07:47:00,37.3,34.4,30.12,West,279,0.0,1.2,89,0.01,OVC,,0.01,47.0,WeatherDisplay:10.37,2013-04-25 12:47:00,
2013-04-25 07:52:00,37.5,34.6,30.12,West,281,6.7,9.6,89,0.01,OVC,,0.01,76.0,WeatherDisplay:10.37,2013-04-25 12:52:00,
2013-04-25 07:57:00,37.5,34.3,30.12,WNW,282,3.1,5.8,88,0.00,OVC,,0.01,86.0,WeatherDisplay:10.37,2013-04-25 12:57:00,
2013-04-25 08:02:00,37.5,34.3,30.13,West,279,1.3,3.6,88,0.00,OVC,,0.01,100.0,WeatherDisplay:10.37,2013-04-25 13:02:00,
2013-04-25 08:07:00,37.5,34.3,30.13,WNW,286,4.5,7.2,88,0.00,OVC,,0.01,97.0,WeatherDisplay:10.37,2013-04-25 13:07:00,
2013-04-25 08:12:00,37.6,34.1,30.13,West,260,5.9,6.0,87,0.00,OVC,,0.01,116.0,WeatherDisplay:10.37,2013-04-25 13:12:00,
2013-04-25 08:17:00,37.8,34.3,30.14,West,280,0.6,3.5,87,0.00,OVC,,0.01,171.0,WeatherDisplay:10.37,2013-04-25 13:17:00,
2013-04-25 08:22:00,38.2,34.7,30.14,West,279,4.8,6.0,87,0.00,OVC,,0.01,230.0,WeatherDisplay:10.37,2013-04-25 13:22:00,
2013-04-25 08:27:00,38.2,34.4,30.14,West,278,4.2,8.4,86,0.00,OVC,,0.01,211.0,WeatherDisplay:10.37,2013-04-25 13:27:00,
2013-04-25 08:32:00,38.5,34.4,30.15,SW,221,3.6,4.8,85,0.00,OVC,,0.01,186.0,WeatherDisplay:10.37,2013-04-25 13:32:00,
2013-04-25 08:37:00,38.6,34.2,30.15,West,274,5.6,7.2,84,0.00,OVC,,0.01,195.0,WeatherDisplay:10.37,2013-04-25 13:37:00,
2013-04-25 08:42:00,38.5,33.5,30.15,WNW,292,8.2,10.8,82,0.00,OVC,,0.01,288.0,WeatherDisplay:10.37,2013-04-25 13:42:00,
2013-04-25 08:47:00,38.6,33.0,30.15,WNW,298,7.3,9.6,80,0.00,OVC,,0.01,202.0,WeatherDisplay:10.37,2013-04-25 13:47:00,
2013-04-25 08:52:00,38.9,33.6,30.15,WSW,255,3.6,6.0,81,0.00,OVC,,0.01,248.0,WeatherDisplay:10.37,2013-04-25 13:52:00,
2013-04-25 08:57:00,38.9,32.9,30.15,West,271,7.4,10.8,79,0.00,OVC,,0.01,262.0,WeatherDisplay:10.37,2013-04-25 13:57:00,
2013-04-25 09:02:00,38.9,32.6,30.16,West,262,3.9,8.4,78,0.00,OVC,,0.01,236.0,WeatherDisplay:10.37,2013-04-25 14:02:00,
2013-04-25 09:07:00,38.9,32.6,30.16,WNW,294,8.5,12.0,78,0.00,OVC,,0.01,288.0,WeatherDisplay:10.37,2013-04-25 14:07:00,
2013-04-25 09:12:00,39.2,32.9,30.16,NW,317,6.0,9.6,78,0.00,OVC,,0.01,338.0,WeatherDisplay:10.37,2013-04-25 14:12:00,
2013-04-25 09:17:00,39.6,33.3,30.16,NW,316,2.6,6.0,78,0.00,OVC,,0.01,214.0,WeatherDisplay:10.37,2013-04-25 14:17:00,
2013-04-25 09:22:00,39.6,33.0,30.16,WNW,296,7.5,12.0,77,0.00,OVC,,0.01,229.0,WeatherDisplay:10.37,2013-04-25 14:22:00,
2013-04-25 09:27:00,39.5,32.9,30.16,WNW,288,7.7,10.8,77,0.00,OVC,,0.01,297.0,WeatherDisplay:10.37,2013-04-25 14:27:00,
2013-04-25 09:32:00,39.5,32.2,30.16,WNW,284,8.1,9.2,75,0.00,OVC,,0.01,415.0,WeatherDisplay:10.37,2013-04-25 14:32:00,
2013-04-25 09:37:00,39.6,32.0,30.16,NW,304,6.9,8.4,74,0.00,OVC,,0.01,204.0,WeatherDisplay:10.37,2013-04-25 14:37:00,
2013-04-25 09:42:00,39.9,32.6,30.16,NW,316,6.0,7.2,75,0.00,OVC,,0.01,635.0,WeatherDisplay:10.37,2013-04-25 14:42:00,
2013-04-25 09:47:00,40.2,32.2,30.17,NW,306,7.6,8.4,73,0.00,OVC,,0.01,204.0,WeatherDisplay:10.37,2013-04-25 14:47:00,
2013-04-25 09:52:00,40.2,31.2,30.17,WNW,290,5.8,8.4,70,0.00,OVC,,0.01,297.0,WeatherDisplay:10.37,2013-04-25 14:52:00,
2013-04-25 09:57:00,40.3,31.6,30.17,WNW,284,7.1,10.8,71,0.00,OVC,,0.01,234.0,WeatherDisplay:10.37,2013-04-25 14:57:00,
2013-04-25 10:02:00,40.3,32.0,30.18,WNW,289,4.7,8.1,72,0.00,OVC,,0.01,176.0,WeatherDisplay:10.37,2013-04-25 15:02:00,
2013-04-25 10:07:00,40.5,31.5,30.18,NW,324,7.4,12.0,70,0.00,OVC,,0.01,795.0,WeatherDisplay:10.37,2013-04-25 15:07:00,
2013-04-25 10:12:00,40.5,31.1,30.18,NW,314,9.4,15.0,69,0.00,OVC,,0.01,276.0,WeatherDisplay:10.37,2013-04-25 15:12:00,
2013-04-25 10:17:00,40.5,31.5,30.19,WNW,302,6.7,9.6,70,0.00,OVC,,0.01,294.0,WeatherDisplay:10.37,2013-04-25 15:17:00,
2013-04-25 10:22:00,40.5,31.5,30.19,NW,321,7.7,9.6,70,0.00,OVC,,0.01,341.0,WeatherDisplay:10.37,2013-04-25 15:22:00,
2013-04-25 10:27:00,40.5,31.1,30.19,WNW,299,7.2,10.4,69,0.00,OVC,,0.01,341.0,WeatherDisplay:10.37,2013-04-25 15:27:00,
2013-04-25 10:32:00,40.8,31.1,30.20,WSW,255,7.1,12.0,68,0.00,OVC,,0.01,325.0,WeatherDisplay:10.37,2013-04-25 15:32:00,
2013-04-25 10:37:00,40.8,30.7,30.20,WNW,289,4.8,7.2,67,0.00,OVC,,0.01,367.0,WeatherDisplay:10.37,2013-04-25 15:37:00,
2013-04-25 10:42:00,41.3,30.8,30.20,WNW,292,5.8,10.8,66,0.00,BKN,,0.01,921.0,WeatherDisplay:10.37,2013-04-25 15:42:00,
2013-04-25 10:47:00,41.2,30.7,30.20,West,263,7.2,9.2,66,0.00,BKN,,0.01,378.0,WeatherDisplay:10.37,2013-04-25 15:47:00,
2013-04-25 10:52:00,41.5,31.4,30.20,West,279,6.4,9.6,67,0.00,BKN,,0.01,346.0,WeatherDisplay:10.37,2013-04-25 15:52:00,
2013-04-25 10:57:00,41.5,30.6,30.20,West,280,9.4,12.0,65,0.00,BKN,,0.01,410.0,WeatherDisplay:10.37,2013-04-25 15:57:00,
2013-04-25 11:02:00,41.6,31.4,30.21,West,274,1.3,3.6,67,0.00,OVC,,0.01,443.0,WeatherDisplay:10.37,2013-04-25 16:02:00,
2013-04-25 11:07:00,41.6,31.1,30.21,WNW,295,6.0,8.1,66,0.00,OVC,,0.01,227.0,WeatherDisplay:10.37,2013-04-25 16:07:00,
2013-04-25 11:12:00,41.3,30.0,30.21,NW,323,6.1,8.1,64,0.00,OVC,,0.01,216.0,WeatherDisplay:10.37,2013-04-25 16:12:00,
2013-04-25 11:17:00,41.5,30.6,30.21,WNW,293,5.4,9.6,65,0.00,OVC,,0.01,1097.0,WeatherDisplay:10.37,2013-04-25 16:17:00,
2013-04-25 11:22:00,41.9,29.4,30.21,WNW,294,5.1,7.2,61,0.00,OVC,,0.01,336.0,WeatherDisplay:10.37,2013-04-25 16:22:00,
2013-04-25 11:27:00,42.1,30.4,30.21,NW,311,4.0,4.8,63,0.00,OVC,,0.01,181.0,WeatherDisplay:10.37,2013-04-25 16:27:00,
2013-04-25 11:32:00,41.8,30.5,30.21,West,267,5.8,10.4,64,0.00,OVC,,0.01,262.0,WeatherDisplay:10.37,2013-04-25 16:32:00,
2013-04-25 11:37:00,41.9,30.6,30.21,WNW,294,2.2,6.0,64,0.00,OVC,,0.01,445.0,WeatherDisplay:10.37,2013-04-25 16:37:00,
2013-04-25 11:42:00,42.3,29.8,30.21,NNW,340,4.7,7.2,61,0.00,OVC,,0.01,378.0,WeatherDisplay:10.37,2013-04-25 16:42:00,
2013-04-25 11:47:00,42.3,30.2,30.22,West,260,5.5,9.6,62,0.00,OVC,,0.01,267.0,WeatherDisplay:10.37,2013-04-25 16:47:00,
2013-04-25 11:52:00,42.3,29.8,30.22,WSW,243,5.0,8.1,61,0.00,OVC,,0.01,274.0,WeatherDisplay:10.37,2013-04-25 16:52:00,
2013-04-25 11:57:00,42.3,30.6,30.22,NW,319,4.2,6.0,63,0.00,OVC,,0.01,506.0,WeatherDisplay:10.37,2013-04-25 16:57:00,
2013-04-25 12:02:00,42.5,29.6,30.22,WNW,295,7.4,10.8,60,0.00,OVC,,0.01,367.0,WeatherDisplay:10.37,2013-04-25 17:02:00,
2013-04-25 12:07:00,42.3,29.4,30.22,WNW,290,8.4,12.7,60,0.00,OVC,,0.01,353.0,WeatherDisplay:10.37,2013-04-25 17:07:00,
2013-04-25 12:12:00,42.5,30.4,30.22,West,259,7.2,9.6,62,0.00,OVC,,0.01,260.0,WeatherDisplay:10.37,2013-04-25 17:12:00,
2013-04-25 12:17:00,42.3,30.2,30.23,WNW,284,2.1,4.8,62,0.00,OVC,,0.01,403.0,WeatherDisplay:10.37,2013-04-25 17:17:00,
2013-04-25 12:22:00,43.2,30.2,30.23,West,280,2.8,7.2,60,0.00,BKN,,0.01,306.0,WeatherDisplay:10.37,2013-04-25 17:22:00,
2013-04-25 12:27:00,42.8,30.3,30.23,WSW,253,6.1,7.2,61,0.00,BKN,,0.01,292.0,WeatherDisplay:10.37,2013-04-25 17:27:00,
2013-04-25 12:32:00,42.6,30.1,30.23,WNW,302,8.5,13.2,61,0.00,BKN,,0.01,381.0,WeatherDisplay:10.37,2013-04-25 17:32:00,
2013-04-25 12:37:00,42.6,29.7,30.23,NW,313,4.7,7.2,60,0.00,BKN,,0.01,332.0,WeatherDisplay:10.37,2013-04-25 17:37:00,
2013-04-25 12:42:00,43.2,31.1,30.23,WNW,290,7.4,10.4,62,0.00,BKN,,0.01,397.0,WeatherDisplay:10.37,2013-04-25 17:42:00,
2013-04-25 12:47:00,43.2,30.2,30.23,SSW,211,5.4,9.2,60,0.00,BKN,,0.01,1148.0,WeatherDisplay:10.37,2013-04-25 17:47:00,
2013-04-25 12:52:00,44.1,31.5,30.23,WSW,256,9.3,15.0,61,0.00,BKN,,0.01,1236.0,WeatherDisplay:10.37,2013-04-25 17:52:00,
2013-04-25 12:57:00,43.3,29.9,30.23,West,270,10.5,12.7,59,0.00,BKN,,0.01,446.0,WeatherDisplay:10.37,2013-04-25 17:57:00,
2013-04-25 13:02:00,43.2,29.4,30.24,SSW,209,4.2,9.2,58,0.00,OVC,,0.01,536.0,WeatherDisplay:10.37,2013-04-25 18:02:00,
2013-04-25 13:07:00,43.5,30.1,30.24,West,273,10.6,14.4,59,0.00,OVC,,0.01,387.0,WeatherDisplay:10.37,2013-04-25 18:07:00,
2013-04-25 13:12:00,43.1,29.3,30.24,WSW,244,6.6,9.6,58,0.00,OVC,,0.01,387.0,WeatherDisplay:10.37,2013-04-25 18:12:00,
2013-04-25 13:17:00,43.3,29.9,30.24,WSW,251,9.8,13.2,59,0.00,OVC,,0.01,454.0,WeatherDisplay:10.37,2013-04-25 18:17:00,
2013-04-25 13:22:00,43.3,29.5,30.24,WSW,258,7.4,12.7,58,0.00,OVC,,0.01,376.0,WeatherDisplay:10.37,2013-04-25 18:22:00,
2013-04-25 13:27:00,43.3,29.9,30.24,SW,227,8.4,14.4,59,0.00,OVC,,0.01,401.0,WeatherDisplay:10.37,2013-04-25 18:27:00,
2013-04-25 13:32:00,45.1,31.6,30.25,NW,309,4.4,4.8,59,0.00,OVC,,0.01,1241.0,WeatherDisplay:10.37,2013-04-25 18:32:00,
2013-04-25 13:37:00,44.2,30.3,30.25,WNW,294,8.3,12.0,58,0.00,OVC,,0.01,388.0,WeatherDisplay:10.37,2013-04-25 18:37:00,
2013-04-25 13:42:00,44.5,29.8,30.25,WNW,282,5.3,6.0,56,0.00,BKN,,0.01,1187.0,WeatherDisplay:10.37,2013-04-25 18:42:00,
2013-04-25 13:47:00,44.6,30.3,30.25,WNW,286,10.4,13.2,57,0.00,BKN,,0.01,418.0,WeatherDisplay:10.37,2013-04-25 18:47:00,
2013-04-25 13:52:00,44.5,30.2,30.25,SW,234,3.2,8.1,57,0.00,BKN,,0.01,410.0,WeatherDisplay:10.37,2013-04-25 18:52:00,
2013-04-25 13:57:00,44.5,30.2,30.25,West,265,8.9,9.6,57,0.00,BKN,,0.01,1118.0,WeatherDisplay:10.37,2013-04-25 18:57:00,
2013-04-25 14:02:00,45.4,30.2,30.25,WSW,238,10.6,15.0,55,0.00,BKN,,0.01,1060.0,WeatherDisplay:10.37,2013-04-25 19:02:00,
2013-04-25 14:07:00,44.5,29.3,30.25,WSW,252,13.6,16.1,55,0.00,BKN,,0.01,346.0,WeatherDisplay:10.37,2013-04-25 19:07:00,
2013-04-25 14:12:00,44.3,30.4,30.25,WSW,249,7.5,10.4,58,0.00,BKN,,0.01,450.0,WeatherDisplay:10.37,2013-04-25 19:12:00,
2013-04-25 14:17:00,44.6,30.3,30.25,WSW,257,3.8,4.8,57,0.00,BKN,,0.01,1121.0,WeatherDisplay:10.37,2013-04-25 19:17:00,
2013-04-25 14:22:00,44.5,29.8,30.25,SSW,202,4.7,7.2,56,0.00,OVC,,0.01,457.0,WeatherDisplay:10.37,2013-04-25 19:22:00,
2013-04-25 14:27:00,44.9,30.1,30.25,West,269,1.0,4.8,56,0.00,OVC,,0.01,452.0,WeatherDisplay:10.37,2013-04-25 19:27:00,
2013-04-25 14:32:00,44.9,29.2,30.25,WSW,246,7.9,16.1,54,0.00,OVC,,0.01,1049.0,WeatherDisplay:10.37,2013-04-25 19:32:00,
2013-04-25 14:37:00,44.6,29.9,30.25,West,261,6.0,9.2,56,0.00,OVC,,0.01,292.0,WeatherDisplay:10.37,2013-04-25 19:37:00,
2013-04-25 14:42:00,44.9,29.7,30.25,WNW,289,8.8,10.8,55,0.00,OVC,,0.01,250.0,WeatherDisplay:10.37,2013-04-25 19:42:00,
2013-04-25 14:47:00,44.6,29.9,30.25,WNW,286,3.5,5.8,56,0.00,OVC,,0.01,993.0,WeatherDisplay:10.37,2013-04-25 19:47:00,
2013-04-25 14:52:00,45.1,29.4,30.25,SW,216,5.7,8.4,54,0.00,OVC,,0.01,246.0,WeatherDisplay:10.37,2013-04-25 19:52:00,
2013-04-25 14:57:00,45.7,30.0,30.25,West,273,0.0,0.0,54,0.00,OVC,,0.01,1032.0,WeatherDisplay:10.37,2013-04-25 19:57:00,
2013-04-25 15:02:00,46.1,29.4,30.25,SW,215,11.0,12.0,52,0.00,OVC,,0.01,287.0,WeatherDisplay:10.37,2013-04-25 20:02:00,
2013-04-25 15:07:00,44.6,29.4,30.25,SSW,198,0.0,0.0,55,0.00,OVC,,0.01,323.0,WeatherDisplay:10.37,2013-04-25 20:07:00,
2013-04-25 15:12:00,45.4,30.6,30.25,WNW,282,3.4,8.4,56,0.00,BKN,,0.01,751.0,WeatherDisplay:10.37,2013-04-25 20:12:00,
2013-04-25 15:17:00,45.5,29.8,30.25,WSW,256,4.1,7.2,54,0.00,BKN,,0.01,888.0,WeatherDisplay:10.37,2013-04-25 20:17:00,
2013-04-25 15:22:00,46.5,30.7,30.25,NW,317,5.8,7.2,54,0.00,BKN,,0.01,860.0,WeatherDisplay:10.37,2013-04-25 20:22:00,
2013-04-25 15:27:00,46.2,30.5,30.25,West,281,4.4,6.0,54,0.00,BKN,,0.01,257.0,WeatherDisplay:10.37,2013-04-25 20:27:00,
2013-04-25 15:32:00,45.7,29.5,30.25,SSE,167,0.1,5.8,53,0.00,BKN,,0.01,366.0,WeatherDisplay:10.37,2013-04-25 20:32:00,
2013-04-25 15:37:00,46.1,29.9,30.25,WSW,248,2.6,8.1,53,0.00,BKN,,0.01,788.0,WeatherDisplay:10.37,2013-04-25 20:37:00,
2013-04-25 15:42:00,46.8,30.6,30.25,SSW,204,4.6,7.2,53,0.00,SCT,,0.01,227.0,WeatherDisplay:10.37,2013-04-25 20:42:00,
2013-04-25 15:47:00,46.1,29.9,30.25,West,279,3.0,8.4,53,0.00,SCT,,0.01,234.0,WeatherDisplay:10.37,2013-04-25 20:47:00,
2013-04-25 15:52:00,46.5,30.7,30.25,West,262,1.8,3.6,54,0.00,SCT,,0.01,821.0,WeatherDisplay:10.37,2013-04-25 20:52:00,
2013-04-25 15:57:00,46.7,29.5,30.25,West,276,6.6,11.5,51,0.00,SCT,,0.01,756.0,WeatherDisplay:10.37,2013-04-25 20:57:00,
2013-04-25 16:02:00,47.0,30.3,30.25,WNW,298,4.8,8.4,52,0.00,CLR,,0.01,221.0,WeatherDisplay:10.37,2013-04-25 21:02:00,
2013-04-25 16:07:00,46.5,30.3,30.25,WSW,257,1.2,3.6,53,0.00,CLR,,0.01,782.0,WeatherDisplay:10.37,2013-04-25 21:07:00,
2013-04-25 16:12:00,46.8,31.0,30.25,WSW,242,2.4,6.0,54,0.00,CLR,,0.01,265.0,WeatherDisplay:10.37,2013-04-25 21:12:00,
2013-04-25 16:17:00,46.8,30.1,30.25,WSW,244,2.4,4.8,52,0.00,CLR,,0.01,171.0,WeatherDisplay:10.37,2013-04-25 21:17:00,
2013-04-25 16:22:00,46.5,29.3,30.25,WSW,250,1.6,3.6,51,0.00,SCT,,0.01,237.0,WeatherDisplay:10.37,2013-04-25 21:22:00,
2013-04-25 16:27:00,47.0,30.3,30.25,WSW,257,3.3,8.4,52,0.00,SCT,,0.01,599.0,WeatherDisplay:10.37,2013-04-25 21:27:00,
2013-04-25 16:32:00,47.4,30.2,30.25,WSW,256,0.8,8.1,51,0.00,SCT,,0.01,557.0,WeatherDisplay:10.37,2013-04-25 21:32:00,
2013-04-25 16:37:00,47.3,30.1,30.25,SW,217,3.1,6.0,51,0.00,SCT,,0.01,571.0,WeatherDisplay:10.37,2013-04-25 21:37:00,
2013-04-25 16:42:00,47.4,30.2,30.25,SW,215,4.3,6.0,51,0.00,SCT,,0.01,564.0,WeatherDisplay:10.37,2013-04-25 21:42:00,
2013-04-25 16:47:00,47.6,29.9,30.25,WSW,237,0.7,4.8,50,0.00,SCT,,0.01,534.0,WeatherDisplay:10.37,2013-04-25 21:47:00,
2013-04-25 16:52:00,47.9,31.1,30.25,SW,226,9.7,15.6,52,0.00,SCT,,0.01,517.0,WeatherDisplay:10.37,2013-04-25 21:52:00,
2013-04-25 16:57:00,47.3,30.1,30.25,South,191,15.6,20.4,51,0.00,SCT,,0.01,139.0,WeatherDisplay:10.37,2013-04-25 21:57:00,
2013-04-25 17:02:00,47.0,29.8,30.26,WSW,257,6.3,7.2,51,0.00,SCT,,0.01,531.0,WeatherDisplay:10.37,2013-04-25 22:02:00,
2013-04-25 17:07:00,47.6,29.9,30.26,SSW,193,6.4,10.8,50,0.00,SCT,,0.01,494.0,WeatherDisplay:10.37,2013-04-25 22:07:00,
2013-04-25 17:12:00,47.6,30.8,30.26,SW,221,2.8,9.2,52,0.00,SCT,,0.01,499.0,WeatherDisplay:10.37,2013-04-25 22:12:00,
2013-04-25 17:17:00,48.0,29.2,30.26,WSW,248,8.8,9.6,48,0.00,SCT,,0.01,452.0,WeatherDisplay:10.37,2013-04-25 22:17:00,
2013-04-25 17:22:00,47.9,28.6,30.26,SSW,211,8.0,9.6,47,0.00,CLR,,0.01,418.0,WeatherDisplay:10.37,2013-04-25 22:22:00,
2013-04-25 17:27:00,47.9,29.1,30.26,South,186,6.2,8.4,48,0.00,CLR,,0.01,406.0,WeatherDisplay:10.37,2013-04-25 22:27:00,
2013-04-25 17:32:00,47.9,30.1,30.25,West,268,5.3,6.0,50,0.00,CLR,,0.01,385.0,WeatherDisplay:10.37,2013-04-25 22:32:00,
2013-04-25 17:37:00,47.9,29.6,30.25,South,178,9.8,12.0,49,0.00,CLR,,0.01,366.0,WeatherDisplay:10.37,2013-04-25 22:37:00,
2013-04-25 17:42:00,47.9,30.1,30.25,SSW,202,7.4,8.4,50,0.00,CLR,,0.01,267.0,WeatherDisplay:10.37,2013-04-25 22:42:00,
2013-04-25 17:47:00,48.0,29.7,30.25,SSW,202,4.0,6.9,49,0.00,CLR,,0.01,316.0,WeatherDisplay:10.37,2013-04-25 22:47:00,
2013-04-25 17:52:00,48.3,29.5,30.25,SSW,209,10.9,12.0,48,0.00,CLR,,0.01,316.0,WeatherDisplay:10.37,2013-04-25 22:52:00,
2013-04-25 17:57:00,47.9,29.6,30.25,SSW,204,7.6,8.4,49,0.00,CLR,,0.01,297.0,WeatherDisplay:10.37,2013-04-25 22:57:00,
2013-04-25 18:02:00,48.2,29.9,30.24,West,265,5.1,8.4,49,0.00,CLR,,0.01,281.0,WeatherDisplay:10.37,2013-04-25 23:02:00,
2013-04-25 18:07:00,48.5,29.2,30.24,West,275,1.2,4.8,47,0.00,CLR,,0.01,267.0,WeatherDisplay:10.37,2013-04-25 23:07:00,
2013-04-25 18:12:00,48.9,28.5,30.24,WSW,250,4.1,4.8,45,0.00,CLR,,0.01,250.0,WeatherDisplay:10.37,2013-04-25 23:12:00,
2013-04-25 18:17:00,48.9,27.9,30.24,WSW,240,4.2,6.0,44,0.00,CLR,,0.01,232.0,WeatherDisplay:10.37,2013-04-25 23:17:00,
2013-04-25 18:22:00,48.8,28.4,30.24,WSW,249,6.5,7.2,45,0.00,CLR,,0.01,190.0,WeatherDisplay:10.37,2013-04-25 23:22:00,
2013-04-25 18:27:00,48.6,28.2,30.24,SW,214,7.2,9.6,45,0.00,CLR,,0.01,151.0,WeatherDisplay:10.37,2013-04-25 23:27:00,
2013-04-25 18:32:00,48.2,28.4,30.24,SSW,201,12.6,18.4,46,0.00,CLR,,0.01,121.0,WeatherDisplay:10.37,2013-04-25 23:32:00,
2013-04-25 18:37:00,48.0,28.2,30.24,SSW,213,14.7,18.4,46,0.00,CLR,,0.01,104.0,WeatherDisplay:10.37,2013-04-25 23:37:00,
2013-04-25 18:42:00,48.2,28.4,30.24,SSW,206,6.0,7.2,46,0.00,CLR,,0.01,116.0,WeatherDisplay:10.37,2013-04-25 23:42:00,
2013-04-25 18:47:00,48.2,28.4,30.24,SSW,200,5.5,7.2,46,0.00,CLR,,0.01,121.0,WeatherDisplay:10.37,2013-04-25 23:47:00,
2013-04-25 18:52:00,48.3,29.0,30.24,WSW,258,6.6,7.2,47,0.00,CLR,,0.01,63.0,WeatherDisplay:10.37,2013-04-25 23:52:00,
2013-04-25 18:57:00,48.2,27.8,30.24,SW,224,5.4,6.0,45,0.00,CLR,,0.01,60.0,WeatherDisplay:10.37,2013-04-25 23:57:00,
2013-04-25 19:02:00,48.0,28.2,30.24,South,171,6.1,8.4,46,0.00,CLR,,0.01,47.0,WeatherDisplay:10.37,2013-04-26 00:02:00,
2013-04-25 19:07:00,48.0,28.7,30.24,WSW,241,7.2,8.4,47,0.00,CLR,,0.01,49.0,WeatherDisplay:10.37,2013-04-26 00:07:00,
2013-04-25 19:12:00,47.9,28.6,30.24,WSW,244,2.7,4.8,47,0.00,CLR,,0.01,49.0,WeatherDisplay:10.37,2013-04-26 00:12:00,
2013-04-25 19:17:00,47.9,28.6,30.24,West,272,2.7,4.8,47,0.00,CLR,,0.01,44.0,WeatherDisplay:10.37,2013-04-26 00:17:00,
2013-04-25 19:22:00,47.7,29.5,30.24,WSW,249,0.0,0.0,49,0.00,CLR,,0.01,32.0,WeatherDisplay:10.37,2013-04-26 00:22:00,
2013-04-25 19:27:00,47.6,29.4,30.24,South,186,2.2,4.8,49,0.00,CLR,,0.01,28.0,WeatherDisplay:10.37,2013-04-26 00:27:00,
2013-04-25 19:32:00,47.4,29.7,30.23,South,186,0.1,1.2,50,0.00,CLR,,0.01,23.0,WeatherDisplay:10.37,2013-04-26 00:32:00,
2013-04-25 19:37:00,47.3,30.1,30.23,South,186,0.0,0.0,51,0.00,CLR,,0.01,19.0,WeatherDisplay:10.37,2013-04-26 00:37:00,
2013-04-25 19:42:00,47.1,28.4,30.23,SSW,208,5.2,7.2,48,0.00,CLR,,0.01,16.0,WeatherDisplay:10.37,2013-04-26 00:42:00,
2013-04-25 19:47:00,47.1,27.4,30.23,SW,217,4.0,6.0,46,0.00,CLR,,0.01,11.0,WeatherDisplay:10.37,2013-04-26 00:47:00,
2013-04-25 19:52:00,47.0,26.7,30.23,SSW,213,4.5,4.8,45,0.00,CLR,,0.01,7.0,WeatherDisplay:10.37,2013-04-26 00:52:00,
2013-04-25 19:57:00,46.8,27.1,30.23,SSW,213,1.8,2.4,46,0.00,CLR,,0.01,0.0,WeatherDisplay:10.37,2013-04-26 00:57:00,
2013-04-25 20:02:00,46.7,27.5,30.24,SSW,213,0.4,3.5,47,0.00,CLR,,0.01,0.0,WeatherDisplay:10.37,2013-04-26 01:02:00,
2013-04-25 20:07:00,46.4,27.2,30.24,SSW,213,2.9,3.6,47,0.00,CLR,,0.01,0.0,WeatherDisplay:10.37,2013-04-26 01:07:00,
2013-04-25 20:12:00,46.2,27.1,30.24,SSW,213,0.0,0.0,47,0.00,CLR,,0.01,0.0,WeatherDisplay:10.37,2013-04-26 01:12:00,
2013-04-25 20:17:00,46.1,28.5,30.24,SSW,213,0.0,0.0,50,0.00,CLR,,0.01,0.0,WeatherDisplay:10.37,2013-04-26 01:17:00,
2013-04-25 20:22:00,46.0,28.4,30.24,SSW,213,0.0,0.0,50,0.00,CLR,,0.01,0.0,WeatherDisplay:10.37,2013-04-26 01:22:00,
2013-04-25 20:27:00,45.7,28.1,30.24,SSW,213,0.0,0.0,50,0.00,CLR,,0.01,0.0,WeatherDisplay:10.37,2013-04-26 01:27:00,
2013-04-25 20:32:00,45.7,28.1,30.24,SSW,213,0.1,1.2,50,0.00,CLR,,0.01,0.0,WeatherDisplay:10.37,2013-04-26 01:32:00,
2013-04-25 20:37:00,45.4,27.3,30.24,SSW,213,0.0,0.0,49,0.00,CLR,,0.01,0.0,WeatherDisplay:10.37,2013-04-26 01:37:00,
2013-04-25 20:42:00,45.2,27.2,30.24,SSW,213,0.0,0.0,49,0.00,CLR,,0.01,0.0,WeatherDisplay:10.37,2013-04-26 01:42:00,
2013-04-25 20:47:00,45.1,27.1,30.24,SSW,213,0.0,0.0,49,0.00,CLR,,0.01,0.0,WeatherDisplay:10.37,2013-04-26 01:47:00,
2013-04-25 20:52:00,44.9,27.4,30.24,SSW,213,0.0,0.0,50,0.00,CLR,,0.01,0.0,WeatherDisplay:10.37,2013-04-26 01:52:00,
2013-04-25 20:57:00,44.8,27.3,30.24,SSW,213,0.0,0.0,50,0.00,CLR,,0.01,0.0,WeatherDisplay:10.37,2013-04-26 01:57:00,
2013-04-25 21:02:00,44.6,28.0,30.24,SSW,213,0.0,0.0,52,0.00,CLR,,0.01,0.0,WeatherDisplay:10.37,2013-04-26 02:02:00,
2013-04-25 21:07:00,44.2,27.7,30.24,SSW,213,0.0,0.0,52,0.00,CLR,,0.01,0.0,WeatherDisplay:10.37,2013-04-26 02:07:00,
2013-04-25 21:12:00,43.9,27.9,30.24,SSW,213,0.0,0.0,53,0.00,CLR,,0.01,0.0,WeatherDisplay:10.37,2013-04-26 02:12:00,
2013-04-25 21:17:00,43.3,29.1,30.25,SSW,213,0.2,2.4,57,0.00,CLR,,0.01,0.0,WeatherDisplay:10.37,2013-04-26 02:17:00,
2013-04-25 21:22:00,42.9,29.5,30.25,SSW,213,0.0,0.0,59,0.00,CLR,,0.01,0.0,WeatherDisplay:10.37,2013-04-26 02:22:00,
2013-04-25 21:27:00,42.6,29.7,30.25,SSW,213,0.0,0.0,60,0.00,CLR,,0.01,0.0,WeatherDisplay:10.37,2013-04-26 02:27:00,
2013-04-25 21:32:00,42.3,29.8,30.26,SSW,213,0.0,0.0,61,0.00,CLR,,0.01,0.0,WeatherDisplay:10.37,2013-04-26 02:32:00,
2013-04-25 21:37:00,42.1,29.6,30.26,SSW,213,0.0,0.0,61,0.00,CLR,,0.01,0.0,WeatherDisplay:10.37,2013-04-26 02:37:00,
2013-04-25 21:42:00,41.8,29.7,30.26,SSW,213,0.0,0.0,62,0.00,CLR,,0.01,0.0,WeatherDisplay:10.37,2013-04-26 02:42:00,
2013-04-25 21:47:00,41.6,29.9,30.26,SSW,213,0.0,0.0,63,0.00,CLR,,0.01,0.0,WeatherDisplay:10.37,2013-04-26 02:47:00,
2013-04-25 21:52:00,41.6,29.9,30.26,SSW,213,0.0,0.0,63,0.00,CLR,,0.01,0.0,WeatherDisplay:10.37,2013-04-26 02:52:00,
2013-04-25 21:57:00,41.5,29.8,30.26,SSW,213,0.0,0.0,63,0.00,CLR,,0.01,0.0,WeatherDisplay:10.37,2013-04-26 02:57:00,
2013-04-25 22:02:00,41.3,30.0,30.27,SSW,213,0.0,0.0,64,0.00,CLR,,0.01,0.0,WeatherDisplay:10.37,2013-04-26 03:02:00,
2013-04-25 22:07:00,40.9,30.0,30.27,SSW,213,0.0,0.0,65,0.00,CLR,,0.01,0.0,WeatherDisplay:10.37,2013-04-26 03:07:00,
2013-04-25 22:12:00,40.6,29.7,30.27,SSW,213,0.0,0.0,65,0.00,CLR,,0.01,0.0,WeatherDisplay:10.37,2013-04-26 03:12:00,
2013-04-25 22:17:00,40.5,29.7,30.27,SSW,213,0.0,0.0,65,0.00,CLR,,0.01,0.0,WeatherDisplay:10.37,2013-04-26 03:17:00,
2013-04-25 22:22:00,40.1,30.0,30.27,SSW,213,0.0,0.0,67,0.00,CLR,,0.01,0.0,WeatherDisplay:10.37,2013-04-26 03:22:00,
2013-04-25 22:27:00,39.8,29.7,30.27,SSW,213,0.0,0.0,67,0.00,CLR,,0.01,0.0,WeatherDisplay:10.37,2013-04-26 03:27:00,
2013-04-25 22:32:00,39.6,29.9,30.27,SSW,213,0.0,0.0,68,0.00,CLR,,0.01,0.0,WeatherDisplay:10.37,2013-04-26 03:32:00,
2013-04-25 22:37:00,39.5,30.2,30.27,SSW,213,0.0,0.0,69,0.00,CLR,,0.01,0.0,WeatherDisplay:10.37,2013-04-26 03:37:00,
2013-04-25 22:42:00,39.3,30.3,30.27,SSW,213,0.0,0.0,70,0.00,CLR,,0.01,0.0,WeatherDisplay:10.37,2013-04-26 03:42:00,
2013-04-25 22:47:00,39.1,30.5,30.27,SSW,213,0.0,0.0,71,0.00,CLR,,0.01,0.0,WeatherDisplay:10.37,2013-04-26 03:47:00,
2013-04-25 22:52:00,38.9,30.3,30.27,SSW,213,0.0,0.0,71,0.00,CLR,,0.01,0.0,WeatherDisplay:10.37,2013-04-26 03:52:00,
2013-04-25 22:57:00,38.6,30.0,30.27,SSW,213,0.0,0.0,71,0.00,CLR,,0.01,0.0,WeatherDisplay:10.37,2013-04-26 03:57:00,
2013-04-25 23:01:00,38.5,30.3,30.27,SSW,213,0.0,0.0,72,0.00,CLR,,0.01,0.0,WeatherDisplay:10.37,2013-04-26 04:01:00,
2013-04-25 23:02:00,38.5,30.3,30.27,SSW,213,0.0,0.0,72,0.00,CLR,,0.01,0.0,WeatherDisplay:10.37,2013-04-26 04:02:00,
2013-04-25 23:03:00,38.5,30.6,30.27,SSW,213,0.0,0.0,73,0.00,CLR,,0.01,0.0,WeatherDisplay:10.37,2013-04-26 04:03:00,
2013-04-25 23:08:00,38.2,30.6,30.27,SSW,213,0.0,0.0,74,0.00,CLR,,0.01,0.0,WeatherDisplay:10.37,2013-04-26 04:08:00,
2013-04-25 23:13:00,38.2,31.0,30.27,SSW,213,0.0,0.0,75,0.00,CLR,,0.01,0.0,WeatherDisplay:10.37,2013-04-26 04:13:00,
2013-04-25 23:18:00,38.0,30.8,30.27,SSW,213,0.0,0.0,75,0.00,CLR,,0.01,0.0,WeatherDisplay:10.37,2013-04-26 04:18:00,
2013-04-25 23:23:00,37.9,31.0,30.27,SSW,213,0.0,0.0,76,0.00,CLR,,0.01,0.0,WeatherDisplay:10.37,2013-04-26 04:23:00,
2013-04-25 23:28:00,37.8,30.6,30.27,SSW,213,0.0,0.0,75,0.00,CLR,,0.01,0.0,WeatherDisplay:10.37,2013-04-26 04:28:00,
2013-04-25 23:33:00,37.5,30.6,30.26,SSW,213,0.0,0.0,76,0.00,CLR,,0.01,0.0,WeatherDisplay:10.37,2013-04-26 04:33:00,
2013-04-25 23:38:00,37.3,30.4,30.26,SSW,213,0.0,0.0,76,0.00,CLR,,0.01,0.0,WeatherDisplay:10.37,2013-04-26 04:38:00,
2013-04-25 23:43:00,37.2,30.7,30.26,SSW,213,0.0,0.0,77,0.00,CLR,,0.01,0.0,WeatherDisplay:10.37,2013-04-26 04:43:00,
2013-04-25 23:48:00,36.9,30.4,30.26,SSW,213,0.0,0.0,77,0.00,CLR,,0.01,0.0,WeatherDisplay:10.37,2013-04-26 04:48:00,
2013-04-25 23:53:00,36.8,30.3,30.26,SSW,213,0.0,0.0,77,0.00,CLR,,0.01,0.0,WeatherDisplay:10.37,2013-04-26 04:53:00,
2013-04-25 23:58:00,36.8,30.3,30.26,SSW,213,0.0,0.0,77,0.00,CLR,,0.01,0.0,WeatherDisplay:10.37,2013-04-26 04:58:00,